Pagrindinis puslapis
METAR-TAF:

METAR-TAF

Oro uostai :

Kaunakakai, Havajai, Jungtinės Amerikos Valstijos

platuma: 21-09N, ilguma: 157-06W, Aukštis: 138 m

Dabartinis oras

Ataskaita buvo paskelbta 25 minutes, ne 08:54 UTC
Vėjas 6 kt iš Šiaurės/Šiaurės Rytų
Temperatūra 26°C
Drėgmė 65%
Slėgis 1015 hPa
Matomumas: 16.1 km
Giedras dangus

METAR: PHMK 180854Z AUTO 03006KT 10SM CLR 26/19 A2996 RMK AO2 SLP142 T02610194 50006 TSNO

Laikas: 23:19 (09:19 UTC)

Prognozė

Ataskaita buvo paskelbta 3 valandos ir 59 minutes, ne 05:20 UTC
Prognozė galioja nuo 18 metu 06 UTC su 19 metu 06 UTC
Vėjas 8 kt iš Šiaurės Rytų
Matomumas: 10 km
Mažai debesys ne aukštis 2500 ft
Išsisklaidę debesys ne aukštis 4500 ft
Nuo 18 metu 2000 UTC
Vėjas 13 kt iš Šiaurės Rytų su gūsio iki 19 kt
Matomumas: 10 km
Mažai debesys ne aukštis 3000 ft
Išsisklaidę debesys ne aukštis 4500 ft

TAF: PHMK 180520Z 1806/1906 05008KT P6SM FEW025 SCT045 FM182000 05013G19KT P6SM FEW030 SCT045

Orai ataskaitas ir orų prognozės (METAR, TAF).

turimą stotys yra geltonos ir raudonos taškus žemėlapyje.

Perkelti pele per norėdami pamatyti stoties vardą.

Tada spustelėkite, norėdami matyti oro stebėjimo ir prognozės.

Norėdami pakeisti žemėlapį: spustelėkite ant žalios mygtukų su juodo kryžiaus žemyn,; žalią mygtuką su brūkšneliu, jei norite nutolinti; arba žalių rodyklių gretimoms žemėlapius.


METAR-TAF: